createdAt,value
2022-12-01T00:00:27.973Z,46.55
2022-12-01T00:00:59.860Z,47.95
2022-12-01T00:01:31.511Z,48.33
2022-12-01T00:02:03.164Z,51.90
2022-12-01T00:02:34.892Z,49.00
2022-12-01T00:03:06.575Z,54.92
2022-12-01T00:03:38.567Z,52.50
2022-12-01T00:04:10.240Z,52.83
2022-12-01T00:04:43.936Z,51.90
2022-12-01T00:05:15.395Z,51.33
2022-12-01T00:05:46.858Z,47.85
2022-12-01T00:06:20.421Z,51.30
2022-12-01T00:06:51.897Z,52.33
2022-12-01T00:07:23.353Z,48.85
2022-12-01T00:07:55.055Z,49.10
2022-12-01T00:08:27.421Z,46.33
2022-12-01T00:09:20.035Z,53.53
2022-12-01T00:10:10.551Z,49.92
2022-12-01T00:10:41.934Z,49.47
2022-12-01T00:11:13.305Z,49.13
2022-12-01T00:11:44.807Z,42.95
2022-12-01T00:12:16.257Z,46.80
2022-12-01T00:12:48.009Z,49.57
2022-12-01T00:14:08.096Z,49.45
2022-12-01T00:14:39.515Z,49.50
2022-12-01T00:15:11.411Z,48.10
2022-12-01T00:15:42.744Z,53.38
2022-12-01T00:16:16.373Z,46.22
2022-12-01T00:16:47.939Z,45.80
2022-12-01T00:17:19.478Z,44.20
2022-12-01T00:17:51.044Z,45.70
2022-12-01T00:18:22.449Z,46.93
2022-12-01T00:18:53.859Z,49.03
2022-12-01T00:19:26.293Z,54.22
2022-12-01T00:19:57.724Z,47.20
2022-12-01T00:20:30.011Z,49.28
2022-12-01T00:21:01.543Z,51.50
2022-12-01T00:21:32.958Z,49.13
2022-12-01T00:22:04.468Z,47.65
2022-12-01T00:22:35.994Z,52.90
2022-12-01T00:23:07.563Z,49.60
2022-12-01T00:23:38.930Z,49.20
2022-12-01T00:24:11.905Z,49.00
2022-12-01T00:24:43.375Z,47.33
2022-12-01T00:25:18.157Z,47.65
2022-12-01T00:25:49.686Z,51.58
2022-12-01T00:26:21.863Z,49.33
2022-12-01T00:26:53.224Z,43.88
2022-12-01T00:27:24.704Z,43.50
2022-12-01T00:27:56.085Z,47.97
2022-12-01T00:28:27.511Z,49.10
2022-12-01T00:28:59.685Z,51.63
2022-12-01T00:29:31.129Z,47.03
2022-12-01T00:30:02.587Z,48.22
2022-12-01T00:30:33.962Z,49.83
2022-12-01T00:31:09.606Z,51.60
2022-12-01T00:31:41.302Z,47.88
2022-12-01T00:32:13.822Z,48.33
2022-12-01T00:32:45.981Z,51.47
2022-12-01T00:33:17.407Z,52.13
2022-12-01T00:33:48.781Z,44.35
2022-12-01T00:34:24.094Z,48.17
2022-12-01T00:34:55.471Z,45.90
2022-12-01T00:35:27.118Z,47.90
2022-12-01T00:36:00.176Z,48.30
2022-12-01T00:36:32.056Z,46.28
2022-12-01T00:37:04.385Z,47.70
2022-12-01T00:37:36.341Z,49.55
2022-12-01T00:38:07.975Z,48.95
2022-12-01T00:38:39.665Z,53.70
2022-12-01T00:39:11.009Z,46.20
2022-12-01T00:39:42.408Z,49.70
2022-12-01T00:40:14.188Z,48.13
2022-12-01T00:40:45.570Z,49.58
2022-12-01T00:41:17.381Z,43.08
2022-12-01T00:41:48.909Z,50.67
2022-12-01T00:42:20.986Z,46.58
2022-12-01T00:42:52.407Z,55.85
2022-12-01T00:43:24.879Z,47.45
2022-12-01T00:43:56.293Z,46.08
2022-12-01T00:44:27.667Z,46.75
2022-12-01T00:44:59.081Z,52.63
2022-12-01T00:45:30.662Z,49.25
2022-12-01T00:46:02.292Z,48.33
2022-12-01T00:46:33.971Z,50.08
2022-12-01T00:47:05.488Z,48.80
2022-12-01T00:47:36.912Z,51.28
2022-12-01T00:48:08.466Z,48.58
2022-12-01T00:48:39.991Z,52.85
2022-12-01T00:49:15.173Z,47.38
2022-12-01T00:49:47.234Z,51.22
2022-12-01T00:50:18.980Z,48.87
2022-12-01T00:50:52.736Z,45.00
2022-12-01T00:51:24.562Z,46.20
2022-12-01T00:51:56.142Z,48.05
2022-12-01T00:52:27.572Z,49.30
2022-12-01T00:52:59.415Z,46.78
2022-12-01T00:53:31.096Z,44.90
2022-12-01T00:54:02.578Z,46.65
2022-12-01T00:54:34.023Z,47.42
2022-12-01T00:55:05.881Z,44.35
2022-12-01T00:55:37.360Z,45.97
2022-12-01T00:56:08.742Z,48.78
2022-12-01T00:56:40.086Z,45.20
2022-12-01T00:57:11.735Z,51.15
2022-12-01T00:57:43.177Z,44.55
2022-12-01T00:58:14.668Z,46.50
2022-12-01T00:58:46.075Z,49.45
2022-12-01T00:59:17.624Z,46.67
2022-12-01T00:59:49.428Z,45.00
2022-12-01T01:00:21.171Z,46.90
2022-12-01T01:01:00.869Z,49.50
2022-12-01T01:01:32.431Z,42.85
2022-12-01T01:02:07.592Z,47.58
2022-12-01T01:02:40.233Z,43.45
2022-12-01T01:03:11.955Z,48.45
2022-12-01T01:03:43.402Z,45.10
2022-12-01T01:04:15.170Z,45.40
2022-12-01T01:04:46.604Z,44.65
2022-12-01T01:05:18.324Z,49.58
2022-12-01T01:05:49.797Z,47.75
2022-12-01T01:06:21.238Z,44.90
2022-12-01T01:06:52.722Z,47.20
2022-12-01T01:07:24.082Z,43.25
2022-12-01T01:07:55.616Z,47.08
2022-12-01T01:08:27.023Z,47.30
2022-12-01T01:08:58.661Z,47.75
2022-12-01T01:09:31.560Z,46.13
2022-12-01T01:10:03.044Z,46.78
2022-12-01T01:10:38.112Z,50.38
2022-12-01T01:11:09.689Z,46.75
2022-12-01T01:11:41.508Z,47.10
2022-12-01T01:12:12.920Z,46.80
2022-12-01T01:12:44.448Z,49.22
2022-12-01T01:13:16.598Z,47.42
2022-12-01T01:13:48.099Z,47.90
2022-12-01T01:14:20.231Z,44.00
2022-12-01T01:14:51.748Z,47.95
2022-12-01T01:15:23.197Z,47.00
2022-12-01T01:16:08.269Z,49.88
2022-12-01T01:16:39.749Z,46.00
2022-12-01T01:17:11.178Z,47.83
2022-12-01T01:17:42.655Z,46.70
2022-12-01T01:18:14.159Z,46.45
2022-12-01T01:18:46.488Z,48.03
2022-12-01T01:19:18.010Z,46.75
2022-12-01T01:19:49.646Z,45.10
2022-12-01T01:20:21.399Z,51.08
2022-12-01T01:21:06.211Z,49.60
2022-12-01T01:21:38.627Z,49.20
2022-12-01T01:22:28.479Z,49.03
2022-12-01T01:22:59.859Z,45.13
2022-12-01T01:23:31.396Z,46.50
2022-12-01T01:24:03.047Z,45.55
2022-12-01T01:24:34.649Z,49.15
2022-12-01T01:25:06.391Z,47.85
2022-12-01T01:25:37.787Z,48.83
2022-12-01T01:26:16.774Z,47.92
2022-12-01T01:26:48.241Z,45.90
2022-12-01T01:27:19.838Z,46.08
2022-12-01T01:27:51.591Z,46.20
2022-12-01T01:28:23.023Z,47.37
2022-12-01T01:28:57.777Z,45.53
2022-12-01T01:29:29.196Z,43.67
2022-12-01T01:30:00.569Z,47.67
2022-12-01T01:30:32.197Z,46.90
2022-12-01T01:31:11.225Z,46.03
2022-12-01T01:31:42.614Z,44.88
2022-12-01T01:32:14.116Z,49.80
2022-12-01T01:32:45.513Z,44.03
2022-12-01T01:33:16.847Z,44.80
2022-12-01T01:33:48.361Z,42.30
2022-12-01T01:34:20.020Z,46.60
2022-12-01T01:34:51.818Z,51.53
2022-12-01T01:35:23.350Z,47.22
2022-12-01T01:35:58.890Z,46.83
2022-12-01T01:36:30.585Z,47.08
2022-12-01T01:37:01.990Z,46.28
2022-12-01T01:37:33.473Z,45.92
2022-12-01T01:38:05.069Z,48.75
2022-12-01T01:38:37.026Z,41.88
2022-12-01T01:39:08.460Z,46.80
2022-12-01T01:40:28.793Z,46.72
2022-12-01T01:41:01.068Z,43.65
2022-12-01T01:41:33.207Z,51.90
2022-12-01T01:42:04.659Z,46.65
2022-12-01T01:42:36.105Z,43.95
2022-12-01T01:43:15.094Z,48.88
2022-12-01T01:44:02.844Z,45.65
2022-12-01T01:45:00.508Z,49.10
2022-12-01T01:45:32.146Z,43.87
2022-12-01T01:46:05.135Z,49.55
2022-12-01T01:46:36.814Z,44.50
2022-12-01T01:47:08.305Z,43.67
2022-12-01T01:47:40.780Z,47.22
2022-12-01T01:48:16.491Z,49.85
2022-12-01T01:48:52.395Z,46.38
2022-12-01T01:49:23.759Z,44.95
2022-12-01T01:49:57.357Z,46.60
2022-12-01T01:50:29.191Z,49.70
2022-12-01T01:51:01.304Z,59.07
2022-12-01T01:51:40.573Z,47.58
2022-12-01T01:52:12.183Z,48.00
2022-12-01T01:52:48.638Z,48.50
2022-12-01T01:53:20.895Z,48.28
2022-12-01T01:53:56.352Z,43.25
2022-12-01T01:54:33.670Z,50.75
2022-12-01T01:55:05.834Z,48.80
2022-12-01T01:55:37.981Z,48.55
2022-12-01T01:56:09.895Z,49.70
2022-12-01T01:56:44.264Z,47.63
2022-12-01T01:57:23.856Z,51.05
2022-12-01T01:57:55.494Z,45.45
2022-12-01T01:58:27.697Z,49.85
2022-12-01T01:58:59.930Z,51.67
2022-12-01T01:59:36.134Z,50.42
2022-12-01T02:00:16.215Z,42.83
2022-12-01T02:00:48.043Z,48.38
2022-12-01T02:01:19.869Z,48.28
2022-12-01T02:02:00.171Z,49.83
2022-12-01T02:02:32.199Z,47.47
2022-12-01T02:03:03.922Z,48.45
2022-12-01T02:04:28.476Z,46.35
2022-12-01T02:05:02.525Z,45.85
2022-12-01T02:05:35.573Z,49.35
2022-12-01T02:06:09.364Z,47.92
2022-12-01T02:06:40.758Z,46.03
2022-12-01T02:07:16.209Z,44.83
2022-12-01T02:07:48.580Z,52.78
2022-12-01T02:08:20.021Z,47.73
2022-12-01T02:08:51.712Z,54.85
2022-12-01T02:09:23.139Z,45.28
2022-12-01T02:09:55.632Z,49.08
2022-12-01T02:10:48.399Z,49.28
2022-12-01T02:11:31.539Z,51.95
2022-12-01T02:12:41.183Z,45.25
2022-12-01T02:13:51.334Z,44.15
2022-12-01T02:14:25.730Z,50.65
2022-12-01T02:15:08.504Z,51.92
2022-12-01T02:16:18.330Z,48.67
2022-12-01T02:17:12.741Z,43.67
2022-12-01T02:17:57.282Z,47.53
2022-12-01T02:18:44.493Z,50.45
2022-12-01T02:19:53.235Z,51.42
2022-12-01T02:20:30.541Z,49.70
2022-12-01T02:21:27.635Z,51.83
2022-12-01T02:22:12.585Z,51.08
2022-12-01T02:23:11.419Z,47.63
2022-12-01T02:24:16.129Z,47.72
2022-12-01T02:25:03.581Z,47.53
2022-12-01T02:26:04.666Z,49.53
2022-12-01T02:26:53.766Z,49.63
2022-12-01T02:27:55.455Z,51.50
2022-12-01T02:28:57.057Z,50.85
2022-12-01T02:29:58.723Z,55.08
2022-12-01T02:30:41.916Z,50.03
2022-12-01T02:31:43.034Z,51.67
2022-12-01T02:32:36.206Z,51.17
2022-12-01T02:33:17.604Z,51.35
2022-12-01T02:33:57.321Z,52.67
2022-12-01T02:34:31.157Z,56.85
2022-12-01T02:35:13.612Z,54.65
2022-12-01T02:36:19.964Z,52.22
2022-12-01T02:36:53.833Z,52.92
2022-12-01T02:37:41.372Z,59.80
2022-12-01T02:38:29.657Z,51.47
2022-12-01T02:39:11.868Z,56.33
2022-12-01T02:40:05.304Z,53.90
2022-12-01T02:40:53.161Z,57.15
2022-12-01T02:41:37.582Z,49.37
2022-12-01T02:42:37.098Z,50.55
2022-12-01T02:43:32.596Z,51.15
2022-12-01T02:44:10.896Z,49.85
2022-12-01T02:44:45.010Z,53.85
2022-12-01T02:45:25.430Z,53.10
2022-12-01T02:46:09.265Z,52.40
2022-12-01T02:46:46.158Z,55.92
2022-12-01T02:47:19.548Z,52.47
2022-12-01T02:47:54.321Z,48.25
2022-12-01T02:48:32.465Z,54.97
2022-12-01T02:49:12.320Z,53.78
2022-12-01T02:49:50.542Z,55.58
2022-12-01T02:50:25.516Z,53.22
2022-12-01T02:51:00.902Z,55.67
2022-12-01T02:51:35.238Z,49.13
2022-12-01T02:52:06.945Z,52.85
2022-12-01T02:52:41.436Z,56.78
2022-12-01T02:53:17.396Z,55.15
2022-12-01T02:53:49.660Z,56.10
2022-12-01T02:54:22.031Z,56.87
2022-12-01T02:54:53.769Z,54.95
2022-12-01T02:55:25.127Z,60.90
2022-12-01T02:55:58.851Z,55.95
2022-12-01T02:56:30.563Z,58.25
2022-12-01T02:57:02.019Z,52.50
2022-12-01T02:57:33.443Z,57.20
2022-12-01T02:58:14.315Z,55.95
2022-12-01T02:58:45.735Z,53.97
2022-12-01T02:59:17.224Z,53.85
2022-12-01T02:59:54.247Z,60.87
2022-12-01T03:00:26.175Z,55.83
2022-12-01T03:01:21.268Z,52.78
2022-12-01T03:01:58.578Z,53.58
2022-12-01T03:03:06.103Z,54.28
2022-12-01T03:03:48.597Z,51.75
2022-12-01T03:04:50.194Z,54.95
2022-12-01T03:05:35.320Z,53.22
2022-12-01T03:06:19.351Z,58.15
2022-12-01T03:07:02.727Z,49.72
2022-12-01T03:07:58.511Z,52.43
2022-12-01T03:08:45.951Z,50.80
2022-12-01T03:09:38.545Z,53.95
2022-12-01T03:10:33.927Z,56.13
2022-12-01T03:11:05.705Z,51.08
2022-12-01T03:12:28.370Z,56.13
2022-12-01T03:13:05.561Z,52.42
2022-12-01T03:14:01.534Z,51.05
2022-12-01T03:14:58.317Z,52.67
2022-12-01T03:16:06.406Z,48.15
2022-12-01T03:16:51.851Z,48.60
2022-12-01T03:17:29.418Z,52.17
2022-12-01T03:18:16.377Z,51.97
2022-12-01T03:18:57.484Z,55.65
2022-12-01T03:19:41.838Z,54.28
2022-12-01T03:20:20.130Z,54.70
2022-12-01T03:21:06.096Z,51.28
2022-12-01T03:22:06.697Z,55.58
2022-12-01T03:22:44.226Z,52.80
2022-12-01T03:23:21.812Z,53.50
2022-12-01T03:24:00.853Z,49.70
2022-12-01T03:24:34.055Z,55.90
2022-12-01T03:25:09.065Z,52.97
2022-12-01T03:25:44.266Z,54.92
2022-12-01T03:26:20.221Z,55.65
2022-12-01T03:26:57.123Z,50.92
2022-12-01T03:27:32.718Z,55.08
2022-12-01T03:28:22.229Z,56.30
2022-12-01T03:28:59.730Z,50.05
2022-12-01T03:29:38.534Z,50.40
2022-12-01T03:30:11.748Z,57.03
2022-12-01T03:30:46.545Z,56.45
2022-12-01T03:31:22.905Z,50.17
2022-12-01T03:31:59.966Z,48.38
2022-12-01T03:32:47.471Z,53.17
2022-12-01T03:33:27.076Z,50.97
2022-12-01T03:34:07.868Z,54.25
2022-12-01T03:34:46.190Z,52.83
2022-12-01T03:35:24.336Z,54.15
2022-12-01T03:36:15.071Z,47.35
2022-12-01T03:36:54.563Z,53.43
2022-12-01T03:37:39.033Z,54.03
2022-12-01T03:38:20.639Z,48.15
2022-12-01T03:39:00.009Z,52.33
2022-12-01T03:39:35.670Z,52.67
2022-12-01T03:40:11.014Z,53.55
2022-12-01T03:40:44.819Z,49.47
2022-12-01T03:41:21.491Z,48.50
2022-12-01T03:42:17.262Z,51.28
2022-12-01T03:42:57.221Z,51.75
2022-12-01T03:43:33.760Z,52.20
2022-12-01T03:44:14.931Z,55.97
2022-12-01T03:44:54.304Z,48.33
2022-12-01T03:45:36.500Z,51.17
2022-12-01T03:46:19.481Z,53.08
2022-12-01T03:46:58.085Z,46.17
2022-12-01T03:47:32.515Z,46.88
2022-12-01T03:48:04.792Z,49.92
2022-12-01T03:48:38.336Z,51.17
2022-12-01T03:49:10.703Z,52.33
2022-12-01T03:49:42.944Z,48.13
2022-12-01T03:50:15.609Z,53.17
2022-12-01T03:51:02.577Z,54.47
2022-12-01T03:51:44.032Z,51.85
2022-12-01T03:52:21.387Z,54.90
2022-12-01T03:52:59.952Z,50.92
2022-12-01T03:53:44.753Z,54.45
2022-12-01T03:54:21.894Z,52.03
2022-12-01T03:55:07.964Z,48.53
2022-12-01T03:55:43.849Z,50.53
2022-12-01T03:56:20.232Z,53.73
2022-12-01T03:56:56.605Z,53.88
2022-12-01T03:57:43.300Z,51.70
2022-12-01T03:58:20.472Z,51.47
2022-12-01T03:58:55.966Z,50.00
2022-12-01T03:59:29.429Z,50.80
2022-12-01T04:00:01.846Z,53.08
2022-12-01T04:00:33.606Z,58.70
2022-12-01T04:01:07.475Z,53.92
2022-12-01T04:01:57.543Z,48.30
2022-12-01T04:02:29.171Z,50.77
2022-12-01T04:03:04.112Z,50.10
2022-12-01T04:03:35.958Z,54.50
2022-12-01T04:04:09.903Z,50.40
2022-12-01T04:04:41.256Z,49.85
2022-12-01T04:05:13.302Z,49.30
2022-12-01T04:05:44.906Z,50.80
2022-12-01T04:06:16.268Z,50.28
2022-12-01T04:06:50.455Z,53.28
2022-12-01T04:07:23.444Z,55.40
2022-12-01T04:07:55.080Z,51.47
2022-12-01T04:08:26.995Z,53.75
2022-12-01T04:08:58.356Z,54.70
2022-12-01T04:09:29.810Z,55.80
2022-12-01T04:10:01.215Z,49.95
2022-12-01T04:10:33.152Z,53.88
2022-12-01T04:11:29.511Z,51.40
2022-12-01T04:12:42.297Z,49.75
2022-12-01T04:13:22.649Z,46.72
2022-12-01T04:13:54.047Z,49.75
2022-12-01T04:14:25.511Z,53.93
2022-12-01T04:14:57.553Z,48.88
2022-12-01T04:15:29.059Z,50.20
2022-12-01T04:16:00.546Z,51.25
2022-12-01T04:16:32.179Z,52.42
2022-12-01T04:17:03.807Z,52.53
2022-12-01T04:17:35.857Z,54.20
2022-12-01T04:18:07.273Z,48.90
2022-12-01T04:18:38.631Z,54.63
2022-12-01T04:19:11.482Z,54.03
2022-12-01T04:19:42.914Z,56.57
2022-12-01T04:20:15.903Z,53.15
2022-12-01T04:20:49.171Z,52.35
2022-12-01T04:21:20.703Z,55.45
2022-12-01T04:21:52.090Z,60.17
2022-12-01T04:22:24.220Z,52.30
2022-12-01T04:22:55.664Z,49.70
2022-12-01T04:23:45.731Z,52.95
2022-12-01T04:24:17.215Z,54.67
2022-12-01T04:24:48.724Z,51.50
2022-12-01T04:25:20.248Z,52.60
2022-12-01T04:25:58.747Z,55.22
2022-12-01T04:26:32.697Z,51.45
2022-12-01T04:27:04.003Z,52.63
2022-12-01T04:27:35.939Z,51.53
2022-12-01T04:28:07.388Z,52.72
2022-12-01T04:28:38.809Z,50.13
2022-12-01T04:29:11.498Z,55.88
2022-12-01T04:29:42.973Z,54.80
2022-12-01T04:30:14.892Z,57.30
2022-12-01T04:30:47.310Z,52.30
2022-12-01T04:31:18.966Z,56.60
2022-12-01T04:31:50.515Z,58.25
2022-12-01T04:32:22.186Z,48.92
2022-12-01T04:32:53.680Z,57.17
2022-12-01T04:34:14.296Z,56.13
2022-12-01T04:34:45.767Z,52.60
2022-12-01T04:35:17.294Z,55.47
2022-12-01T04:35:58.765Z,53.25
2022-12-01T04:36:32.444Z,52.20
2022-12-01T04:37:04.501Z,56.17
2022-12-01T04:37:36.506Z,56.90
2022-12-01T04:38:08.025Z,49.47
2022-12-01T04:38:39.492Z,60.30
2022-12-01T04:39:10.952Z,57.45
2022-12-01T04:39:42.585Z,48.40
2022-12-01T04:40:14.245Z,57.30
2022-12-01T04:40:45.858Z,55.97
2022-12-01T04:41:17.937Z,57.05
2022-12-01T04:41:49.461Z,54.00
2022-12-01T04:42:20.866Z,56.78
2022-12-01T04:42:52.264Z,55.92
2022-12-01T04:43:23.822Z,54.92
2022-12-01T04:43:55.885Z,55.42
2022-12-01T04:44:34.331Z,53.83
2022-12-01T04:45:06.769Z,51.65
2022-12-01T04:45:38.277Z,56.80
2022-12-01T04:46:10.779Z,55.90
2022-12-01T04:46:42.522Z,58.08
2022-12-01T04:47:13.964Z,57.90
2022-12-01T04:47:45.321Z,58.45
2022-12-01T04:48:16.680Z,55.97
2022-12-01T04:48:48.207Z,56.28
2022-12-01T04:49:21.533Z,56.80
2022-12-01T04:49:53.097Z,56.40
2022-12-01T04:50:24.439Z,58.03
2022-12-01T04:50:55.812Z,54.28
2022-12-01T04:51:27.447Z,57.40
2022-12-01T04:51:59.020Z,53.28
2022-12-01T04:52:35.005Z,54.47
2022-12-01T04:53:06.841Z,55.92
2022-12-01T04:53:38.336Z,48.50
2022-12-01T04:54:09.895Z,57.50
2022-12-01T04:54:41.371Z,63.35
2022-12-01T04:55:15.299Z,61.85
2022-12-01T04:55:46.876Z,57.75
2022-12-01T04:56:18.497Z,54.55
2022-12-01T04:56:49.898Z,55.83
2022-12-01T04:57:21.365Z,53.72
2022-12-01T04:57:52.743Z,55.27
2022-12-01T04:58:24.215Z,59.72
2022-12-01T04:58:55.666Z,58.53
2022-12-01T04:59:27.123Z,55.58
2022-12-01T04:59:58.431Z,55.15
2022-12-01T05:00:30.232Z,63.67
2022-12-01T05:01:03.613Z,57.78
2022-12-01T05:01:35.214Z,54.42
2022-12-01T05:02:06.751Z,57.30
2022-12-01T05:02:38.088Z,53.78
2022-12-01T05:03:14.725Z,60.73
2022-12-01T05:03:50.915Z,55.65
2022-12-01T05:04:22.300Z,55.55
2022-12-01T05:04:53.721Z,58.50
2022-12-01T05:05:25.881Z,62.65
2022-12-01T05:06:06.510Z,58.05
2022-12-01T05:06:38.001Z,55.00
2022-12-01T05:07:09.575Z,56.20
2022-12-01T05:07:41.027Z,57.30
2022-12-01T05:08:12.435Z,55.10
2022-12-01T05:08:43.960Z,59.00
2022-12-01T05:09:17.487Z,55.42
2022-12-01T05:09:49.748Z,50.28
2022-12-01T05:10:22.332Z,56.13
2022-12-01T05:10:55.886Z,58.20
2022-12-01T05:11:29.729Z,60.85
2022-12-01T05:12:01.277Z,61.42
2022-12-01T05:12:32.749Z,62.35
2022-12-01T05:13:05.717Z,60.40
2022-12-01T05:13:41.606Z,58.40
2022-12-01T05:14:12.972Z,55.10
2022-12-01T05:14:49.615Z,58.70
2022-12-01T05:15:21.539Z,55.50
2022-12-01T05:15:53.510Z,60.05
2022-12-01T05:16:28.039Z,56.30
2022-12-01T05:17:00.675Z,56.67
2022-12-01T05:17:36.765Z,57.90
2022-12-01T05:18:08.270Z,53.90
2022-12-01T05:18:40.847Z,59.80
2022-12-01T05:19:31.248Z,54.42
2022-12-01T05:20:21.744Z,52.23
2022-12-01T05:20:59.065Z,48.45
2022-12-01T05:21:30.440Z,49.13
2022-12-01T05:22:01.956Z,48.47
2022-12-01T05:23:03.645Z,58.33
2022-12-01T05:23:27.120Z,52.10
2022-12-01T05:23:58.440Z,55.85
2022-12-01T05:24:29.770Z,54.88
2022-12-01T05:25:01.253Z,51.78
2022-12-01T05:25:33.651Z,54.55
2022-12-01T05:26:08.441Z,52.60
2022-12-01T05:26:41.668Z,52.85
2022-12-01T05:27:13.152Z,52.50
2022-12-01T05:27:44.882Z,60.88
2022-12-01T05:28:16.456Z,56.17
2022-12-01T05:28:48.040Z,52.08
2022-12-01T05:29:19.541Z,56.45
2022-12-01T05:29:51.332Z,54.08
2022-12-01T05:30:28.323Z,58.85
2022-12-01T05:31:00.233Z,57.13
2022-12-01T05:31:31.892Z,56.27
2022-12-01T05:32:03.777Z,58.42
2022-12-01T05:32:35.192Z,56.38
2022-12-01T05:33:06.825Z,61.50
2022-12-01T05:33:38.139Z,57.10
2022-12-01T05:34:09.747Z,50.10
2022-12-01T05:34:41.336Z,50.80
2022-12-01T05:35:12.796Z,58.97
2022-12-01T05:35:44.226Z,55.58
2022-12-01T05:36:15.819Z,53.70
2022-12-01T05:36:47.235Z,62.27
2022-12-01T05:37:18.662Z,61.17
2022-12-01T05:37:50.023Z,53.17
2022-12-01T05:38:21.916Z,59.83
2022-12-01T05:38:53.315Z,55.90
2022-12-01T05:39:24.928Z,58.88
2022-12-01T05:39:56.312Z,55.25
2022-12-01T05:40:27.747Z,57.10
2022-12-01T05:40:59.178Z,59.90
2022-12-01T05:41:30.727Z,55.22
2022-12-01T05:42:02.248Z,59.37
2022-12-01T05:42:36.584Z,54.83
2022-12-01T05:43:08.398Z,59.47
2022-12-01T05:43:39.765Z,58.08
2022-12-01T05:44:11.149Z,56.60
2022-12-01T05:44:42.646Z,53.10
2022-12-01T05:45:14.081Z,61.45
2022-12-01T05:45:45.750Z,56.78
2022-12-01T05:46:17.298Z,50.33
2022-12-01T05:46:48.990Z,57.00
2022-12-01T05:47:20.630Z,55.67
2022-12-01T05:47:56.241Z,55.25
2022-12-01T05:48:27.892Z,62.47
2022-12-01T05:48:59.460Z,55.67
2022-12-01T05:49:31.011Z,59.50
2022-12-01T05:50:05.839Z,55.00
2022-12-01T05:50:39.486Z,58.53
2022-12-01T05:51:13.535Z,58.53
2022-12-01T05:51:44.899Z,58.05
2022-12-01T05:52:35.407Z,61.55
2022-12-01T05:53:07.372Z,56.37
2022-12-01T05:53:38.852Z,57.08
2022-12-01T05:54:10.252Z,63.10
2022-12-01T05:54:46.796Z,57.92
2022-12-01T05:55:18.635Z,57.80
2022-12-01T05:55:54.330Z,56.92
2022-12-01T05:56:26.044Z,58.15
2022-12-01T05:56:57.524Z,57.25
2022-12-01T05:57:28.997Z,59.92
2022-12-01T05:58:01.158Z,55.83
2022-12-01T05:58:32.749Z,55.97
2022-12-01T05:59:04.177Z,59.55
2022-12-01T05:59:35.593Z,62.17
2022-12-01T06:00:08.285Z,58.25
2022-12-01T06:00:45.308Z,57.70
2022-12-01T06:01:17.440Z,53.97
2022-12-01T06:01:48.871Z,54.05
2022-12-01T06:02:20.352Z,59.55
2022-12-01T06:02:51.837Z,56.20
2022-12-01T06:03:23.339Z,63.72
2022-12-01T06:03:54.765Z,55.03
2022-12-01T06:04:26.281Z,54.47
2022-12-01T06:04:57.700Z,61.28
2022-12-01T06:05:29.263Z,57.92
2022-12-01T06:06:00.872Z,60.85
2022-12-01T06:06:32.410Z,59.00
2022-12-01T06:07:03.847Z,60.78
2022-12-01T06:07:35.886Z,55.55
2022-12-01T06:08:07.513Z,55.97
2022-12-01T06:08:39.104Z,53.13
2022-12-01T06:09:10.521Z,58.70
2022-12-01T06:09:41.984Z,58.63
2022-12-01T06:10:13.786Z,56.83
2022-12-01T06:10:46.021Z,57.10
2022-12-01T06:11:17.437Z,58.17
2022-12-01T06:11:52.343Z,63.88
2022-12-01T06:12:24.064Z,51.78
2022-12-01T06:12:55.409Z,56.08
2022-12-01T06:13:26.846Z,57.15
2022-12-01T06:13:58.213Z,60.20
2022-12-01T06:14:29.532Z,51.50
2022-12-01T06:15:00.902Z,56.42
2022-12-01T06:15:32.288Z,57.65
2022-12-01T06:16:05.936Z,56.65
2022-12-01T06:16:37.445Z,56.45
2022-12-01T06:17:08.933Z,55.85
2022-12-01T06:17:40.812Z,52.92
2022-12-01T06:18:12.222Z,53.42
2022-12-01T06:18:43.661Z,51.53
2022-12-01T06:19:15.023Z,54.50
2022-12-01T06:19:48.335Z,52.93
2022-12-01T06:20:19.866Z,56.40
2022-12-01T06:20:51.425Z,52.08
2022-12-01T06:21:22.719Z,54.47
2022-12-01T06:21:54.247Z,55.97
2022-12-01T06:22:25.636Z,54.67
2022-12-01T06:22:57.030Z,51.33
2022-12-01T06:23:30.582Z,53.15
2022-12-01T06:24:02.459Z,55.08
2022-12-01T06:24:33.947Z,55.67
2022-12-01T06:25:05.887Z,56.40
2022-12-01T06:25:37.350Z,55.95
2022-12-01T06:26:08.863Z,54.65
2022-12-01T06:26:40.319Z,57.30
2022-12-01T06:27:11.712Z,55.40
2022-12-01T06:27:43.739Z,60.25
2022-12-01T06:28:15.400Z,49.92
2022-12-01T06:28:47.027Z,53.80
2022-12-01T06:29:18.537Z,55.22
2022-12-01T06:29:50.490Z,54.25
2022-12-01T06:30:22.158Z,55.27
2022-12-01T06:30:56.640Z,53.70
2022-12-01T06:31:32.630Z,57.35
2022-12-01T06:32:04.348Z,55.78
2022-12-01T06:32:36.247Z,54.22
2022-12-01T06:33:07.851Z,55.40
2022-12-01T06:33:39.423Z,53.83
2022-12-01T06:34:11.041Z,55.78
2022-12-01T06:34:47.495Z,56.60
2022-12-01T06:35:19.050Z,55.42
2022-12-01T06:35:58.150Z,58.67
2022-12-01T06:36:29.717Z,57.78
2022-12-01T06:37:01.255Z,62.90
2022-12-01T06:37:32.673Z,54.97
2022-12-01T06:38:04.262Z,57.03
2022-12-01T06:38:37.192Z,58.92
2022-12-01T06:39:10.119Z,58.10
2022-12-01T06:39:41.696Z,60.22
2022-12-01T06:40:13.434Z,57.90
2022-12-01T06:40:45.073Z,58.00
2022-12-01T06:41:16.466Z,63.40
2022-12-01T06:41:48.084Z,56.10
2022-12-01T06:42:19.622Z,62.33
2022-12-01T06:42:51.062Z,55.83
2022-12-01T06:43:22.697Z,61.75
2022-12-01T06:43:54.827Z,58.20
2022-12-01T06:44:26.245Z,56.35
2022-12-01T06:44:57.861Z,62.47
2022-12-01T06:45:30.428Z,63.38
2022-12-01T06:46:52.966Z,50.37
2022-12-01T06:47:24.326Z,54.28
2022-12-01T06:47:56.549Z,57.83
2022-12-01T06:48:27.868Z,58.90
2022-12-01T06:48:59.298Z,66.50
2022-12-01T06:49:30.746Z,55.78
2022-12-01T06:50:02.569Z,57.47
2022-12-01T06:50:34.060Z,55.88
2022-12-01T06:51:06.073Z,56.88
2022-12-01T06:51:37.684Z,56.10
2022-12-01T06:52:10.112Z,61.83
2022-12-01T06:52:41.492Z,53.40
2022-12-01T06:53:12.866Z,57.22
2022-12-01T06:53:44.636Z,60.63
2022-12-01T06:54:17.764Z,60.38
2022-12-01T06:54:54.290Z,54.47
2022-12-01T06:55:25.860Z,64.10
2022-12-01T06:56:01.714Z,53.83
2022-12-01T06:56:33.657Z,58.33
2022-12-01T06:57:24.160Z,54.97
2022-12-01T06:57:55.713Z,62.10
2022-12-01T06:58:45.702Z,62.45
2022-12-01T06:59:17.690Z,60.83
2022-12-01T06:59:49.620Z,62.92
2022-12-01T07:00:22.679Z,59.50
2022-12-01T07:00:54.174Z,58.90
2022-12-01T07:01:26.039Z,56.50
2022-12-01T07:01:57.858Z,58.55
2022-12-01T07:02:29.325Z,57.03
2022-12-01T07:03:00.805Z,54.25
2022-12-01T07:03:32.435Z,50.50
2022-12-01T07:04:03.777Z,55.65
2022-12-01T07:04:35.080Z,60.53
2022-12-01T07:05:06.757Z,53.85
2022-12-01T07:05:42.852Z,54.33
2022-12-01T07:06:14.759Z,53.55
2022-12-01T07:06:46.131Z,57.42
2022-12-01T07:07:17.481Z,56.47
2022-12-01T07:07:48.987Z,63.35
2022-12-01T07:08:24.719Z,63.13
2022-12-01T07:09:01.361Z,57.73
2022-12-01T07:09:32.832Z,56.60
2022-12-01T07:10:04.515Z,56.92
2022-12-01T07:10:35.904Z,66.10
2022-12-01T07:11:10.043Z,59.38
2022-12-01T07:11:41.506Z,59.08
2022-12-01T07:12:12.939Z,57.42
2022-12-01T07:12:44.354Z,56.70
2022-12-01T07:13:15.669Z,56.67
2022-12-01T07:13:49.240Z,56.97
2022-12-01T07:14:24.130Z,58.13
2022-12-01T07:14:55.569Z,57.85
2022-12-01T07:15:28.721Z,54.10
2022-12-01T07:16:01.168Z,54.92
2022-12-01T07:16:32.603Z,55.80
2022-12-01T07:17:04.189Z,61.05
2022-12-01T07:17:36.066Z,60.33
2022-12-01T07:18:07.504Z,56.30
2022-12-01T07:18:40.690Z,60.65
2022-12-01T07:19:12.325Z,56.72
2022-12-01T07:19:43.914Z,62.27
2022-12-01T07:20:15.315Z,61.60
2022-12-01T07:20:46.712Z,55.35
2022-12-01T07:21:18.199Z,59.70
2022-12-01T07:21:49.644Z,61.58
2022-12-01T07:22:21.196Z,62.40
2022-12-01T07:22:54.062Z,60.63
2022-12-01T07:23:25.576Z,60.30
2022-12-01T07:23:57.173Z,61.50
2022-12-01T07:24:29.636Z,64.03
2022-12-01T07:25:01.055Z,65.17
2022-12-01T07:25:32.471Z,62.65
2022-12-01T07:26:07.776Z,67.10
2022-12-01T07:26:43.769Z,61.28
2022-12-01T07:27:15.224Z,67.85
2022-12-01T07:27:46.706Z,65.65
2022-12-01T07:28:20.402Z,61.00
2022-12-01T07:28:52.852Z,74.63
2022-12-01T07:29:24.217Z,63.83
2022-12-01T07:29:55.639Z,62.55
2022-12-01T07:30:31.893Z,66.10
2022-12-01T07:31:08.649Z,69.40
2022-12-01T07:31:42.748Z,68.65
2022-12-01T07:32:15.307Z,66.32
2022-12-01T07:32:46.705Z,61.05
2022-12-01T07:33:20.744Z,71.90